createdAt,value
2023-02-26T00:01:55.037Z,74.71
2023-02-26T00:04:21.328Z,74.70
2023-02-26T00:06:47.725Z,74.74
2023-02-26T00:09:14.059Z,74.23
2023-02-26T00:11:40.427Z,74.17
2023-02-26T00:14:06.746Z,73.70
2023-02-26T00:16:33.172Z,74.03
2023-02-26T00:18:59.539Z,73.97
2023-02-26T00:21:25.871Z,74.17
2023-02-26T00:23:52.182Z,73.56
2023-02-26T00:26:18.530Z,73.23
2023-02-26T00:28:44.917Z,73.64
2023-02-26T00:31:11.804Z,73.74
2023-02-26T00:33:38.094Z,73.77
2023-02-26T00:36:04.474Z,73.69
2023-02-26T00:38:30.824Z,73.64
2023-02-26T00:40:57.162Z,73.50
2023-02-26T00:43:23.487Z,73.35
2023-02-26T00:45:49.878Z,73.48
2023-02-26T00:48:16.529Z,73.85
2023-02-26T00:50:42.899Z,73.77
2023-02-26T00:53:09.262Z,73.90
2023-02-26T00:55:35.652Z,73.55
2023-02-26T00:58:02.241Z,73.84
2023-02-26T01:00:28.563Z,74.01
2023-02-26T01:02:54.871Z,74.21
2023-02-26T01:05:21.273Z,74.62
2023-02-26T01:07:47.627Z,74.65
2023-02-26T01:10:13.998Z,74.64
2023-02-26T01:12:40.360Z,74.72
2023-02-26T01:15:06.730Z,74.66
2023-02-26T01:17:33.091Z,75.17
2023-02-26T01:19:59.591Z,75.35
2023-02-26T01:22:25.943Z,75.45
2023-02-26T01:24:52.328Z,75.51
2023-02-26T01:27:18.668Z,75.73
2023-02-26T01:29:45.011Z,75.92
2023-02-26T01:32:11.512Z,76.23
2023-02-26T01:34:37.767Z,76.42
2023-02-26T01:37:04.149Z,76.60
2023-02-26T01:39:30.515Z,76.81
2023-02-26T01:41:56.978Z,77.07
2023-02-26T01:44:23.354Z,77.29
2023-02-26T01:46:49.814Z,77.53
2023-02-26T01:49:16.084Z,77.77
2023-02-26T01:51:42.462Z,77.96
2023-02-26T01:54:08.836Z,78.24
2023-02-26T01:56:35.195Z,78.48
2023-02-26T01:59:01.504Z,78.71
2023-02-26T02:01:27.898Z,78.95
2023-02-26T02:03:54.215Z,79.18
2023-02-26T02:06:20.611Z,79.39
2023-02-26T02:08:46.935Z,79.60
2023-02-26T02:11:13.311Z,79.58
2023-02-26T02:13:39.664Z,79.78
2023-02-26T02:16:06.104Z,80.07
2023-02-26T02:18:32.375Z,80.19
2023-02-26T02:20:58.803Z,80.24
2023-02-26T02:23:25.161Z,80.34
2023-02-26T02:25:51.490Z,80.46
2023-02-26T02:28:17.860Z,80.65
2023-02-26T02:30:44.253Z,80.90
2023-02-26T02:33:10.565Z,81.07
2023-02-26T02:35:36.956Z,80.82
2023-02-26T02:38:03.346Z,81.06
2023-02-26T02:40:29.685Z,81.04
2023-02-26T02:42:56.055Z,81.26
2023-02-26T02:45:22.424Z,81.28
2023-02-26T02:47:48.739Z,81.21
2023-02-26T02:50:15.118Z,81.29
2023-02-26T02:52:41.481Z,81.43
2023-02-26T02:55:07.852Z,81.52
2023-02-26T02:57:34.210Z,81.65
2023-02-26T03:00:00.550Z,81.82
2023-02-26T03:02:26.965Z,82.02
2023-02-26T03:04:53.233Z,82.14
2023-02-26T03:07:19.609Z,82.29
2023-02-26T03:09:45.978Z,82.43
2023-02-26T03:12:12.373Z,82.49
2023-02-26T03:14:38.708Z,82.55
2023-02-26T03:17:05.027Z,82.45
2023-02-26T03:19:31.452Z,82.60
2023-02-26T03:21:57.776Z,82.45
2023-02-26T03:24:24.160Z,82.40
2023-02-26T03:26:50.471Z,82.58
2023-02-26T03:29:16.808Z,81.99
2023-02-26T03:31:43.199Z,81.33
2023-02-26T03:34:09.518Z,81.32
2023-02-26T03:36:35.876Z,80.97
2023-02-26T03:39:02.248Z,80.84
2023-02-26T03:41:28.567Z,80.76
2023-02-26T03:43:54.920Z,80.77
2023-02-26T03:46:21.310Z,80.87
2023-02-26T03:48:47.643Z,81.00
2023-02-26T03:51:13.982Z,81.03
2023-02-26T03:53:40.316Z,80.98
2023-02-26T03:56:06.725Z,81.23
2023-02-26T03:58:33.061Z,81.42
2023-02-26T04:00:59.415Z,81.50
2023-02-26T04:03:25.764Z,81.39
2023-02-26T04:05:52.127Z,81.69
2023-02-26T04:08:18.513Z,81.93
2023-02-26T04:10:44.864Z,82.16
2023-02-26T04:13:11.244Z,82.43
2023-02-26T04:15:37.556Z,82.66
2023-02-26T04:18:04.159Z,82.70
2023-02-26T04:20:30.524Z,82.84
2023-02-26T04:22:56.905Z,82.98
2023-02-26T04:25:23.264Z,83.18
2023-02-26T04:27:49.594Z,83.39
2023-02-26T04:30:15.984Z,83.50
2023-02-26T04:32:42.273Z,83.70
2023-02-26T04:35:08.595Z,83.73
2023-02-26T04:37:34.939Z,83.76
2023-02-26T04:40:01.349Z,83.00
2023-02-26T04:42:27.736Z,83.08
2023-02-26T04:44:54.037Z,83.11
2023-02-26T04:47:20.469Z,83.25
2023-02-26T04:49:46.823Z,83.45
2023-02-26T04:52:13.214Z,83.67
2023-02-26T04:54:39.599Z,83.94
2023-02-26T04:57:05.937Z,84.24
2023-02-26T04:59:32.381Z,84.48
2023-02-26T05:01:58.791Z,84.71
2023-02-26T05:04:25.116Z,84.91
2023-02-26T05:06:51.412Z,85.18
2023-02-26T05:09:17.754Z,85.43
2023-02-26T05:11:44.141Z,85.66
2023-02-26T05:14:10.455Z,85.86
2023-02-26T05:16:36.894Z,86.10
2023-02-26T05:19:03.257Z,86.40
2023-02-26T05:21:29.626Z,86.67
2023-02-26T05:23:55.944Z,86.98
2023-02-26T05:26:22.347Z,87.22
2023-02-26T05:28:48.643Z,87.46
2023-02-26T05:31:15.107Z,87.61
2023-02-26T05:33:41.384Z,87.84
2023-02-26T05:36:07.796Z,88.05
2023-02-26T05:38:34.128Z,88.16
2023-02-26T05:41:00.505Z,88.24
2023-02-26T05:43:26.824Z,88.28
2023-02-26T05:45:53.208Z,88.32
2023-02-26T05:48:19.510Z,88.40
2023-02-26T05:50:45.938Z,88.46
2023-02-26T05:53:12.252Z,88.53
2023-02-26T05:55:38.593Z,88.61
2023-02-26T05:58:04.934Z,88.62
2023-02-26T06:00:31.313Z,88.65
2023-02-26T06:02:57.700Z,88.73
2023-02-26T06:05:24.069Z,88.80
2023-02-26T06:07:50.433Z,88.88
2023-02-26T06:10:16.796Z,89.02
2023-02-26T06:12:43.166Z,89.15
2023-02-26T06:15:09.614Z,89.27
2023-02-26T06:17:35.976Z,89.31
2023-02-26T06:20:02.416Z,89.24
2023-02-26T06:22:28.778Z,89.00
2023-02-26T06:24:55.171Z,88.92
2023-02-26T06:27:21.510Z,88.86
2023-02-26T06:29:47.848Z,88.79
2023-02-26T06:32:14.437Z,88.59
2023-02-26T06:34:40.625Z,88.46
2023-02-26T06:37:06.947Z,88.42
2023-02-26T06:39:33.344Z,88.42
2023-02-26T06:41:59.669Z,88.33
2023-02-26T06:44:26.450Z,88.36
2023-02-26T06:46:52.811Z,88.28
2023-02-26T06:49:19.157Z,88.22
2023-02-26T06:51:45.520Z,88.24
2023-02-26T06:54:11.941Z,88.32
2023-02-26T06:56:38.256Z,88.38
2023-02-26T06:59:04.598Z,88.20
2023-02-26T07:01:31.156Z,88.02
2023-02-26T07:03:57.439Z,87.63
2023-02-26T07:06:27.790Z,87.34
2023-02-26T07:08:50.157Z,87.13
2023-02-26T07:11:16.486Z,86.58
2023-02-26T07:13:42.911Z,86.30
2023-02-26T07:16:09.275Z,86.26
2023-02-26T07:18:35.627Z,86.05
2023-02-26T07:21:01.939Z,85.96
2023-02-26T07:23:28.347Z,85.84
2023-02-26T07:25:54.692Z,85.38
2023-02-26T07:28:21.207Z,84.71
2023-02-26T07:30:47.646Z,84.30
2023-02-26T07:33:14.304Z,83.71
2023-02-26T07:35:40.710Z,81.88
2023-02-26T07:38:07.677Z,60.25
2023-02-26T07:40:34.031Z,54.41
2023-02-26T07:43:00.954Z,50.57
2023-02-26T07:45:27.300Z,45.19
2023-02-26T07:47:53.654Z,47.44
2023-02-26T07:50:20.028Z,52.15
2023-02-26T07:52:46.406Z,53.67
2023-02-26T07:55:12.765Z,54.86
2023-02-26T07:57:40.498Z,55.62
2023-02-26T08:00:09.470Z,55.29
2023-02-26T08:02:33.216Z,55.77
2023-02-26T08:04:59.547Z,56.04
2023-02-26T08:07:25.894Z,57.11
2023-02-26T08:09:52.500Z,58.03
2023-02-26T08:12:18.834Z,58.77
2023-02-26T08:14:45.184Z,59.60
2023-02-26T08:17:11.921Z,60.00
2023-02-26T08:19:38.457Z,60.80
2023-02-26T08:22:04.837Z,60.50
2023-02-26T08:24:31.506Z,61.03
2023-02-26T08:26:57.883Z,61.91
2023-02-26T08:29:24.370Z,62.63
2023-02-26T08:31:50.915Z,63.39
2023-02-26T08:34:17.166Z,64.10
2023-02-26T08:36:43.540Z,64.72
2023-02-26T08:39:09.930Z,65.35
2023-02-26T08:41:36.287Z,66.06
2023-02-26T08:44:02.769Z,66.56
2023-02-26T08:46:29.640Z,66.93
2023-02-26T08:48:55.556Z,67.48
2023-02-26T08:51:21.943Z,68.08
2023-02-26T08:53:48.302Z,68.29
2023-02-26T08:56:14.691Z,68.86
2023-02-26T08:58:41.022Z,69.12
2023-02-26T09:01:07.364Z,65.73
2023-02-26T09:03:33.912Z,59.95
2023-02-26T09:06:00.332Z,55.71
2023-02-26T09:08:26.954Z,53.79
2023-02-26T09:10:53.342Z,54.04
2023-02-26T09:13:19.657Z,55.57
2023-02-26T09:15:46.118Z,54.71
2023-02-26T09:18:12.515Z,55.52
2023-02-26T09:20:39.018Z,56.84
2023-02-26T09:23:05.395Z,60.07
2023-02-26T09:25:31.818Z,62.01
2023-02-26T09:27:58.988Z,63.97
2023-02-26T09:30:24.517Z,64.32
2023-02-26T09:32:51.620Z,61.86
2023-02-26T09:35:18.238Z,59.69
2023-02-26T09:37:44.830Z,60.22
2023-02-26T09:40:11.214Z,60.36
2023-02-26T09:42:37.527Z,63.52
2023-02-26T09:45:03.909Z,64.26
2023-02-26T09:47:30.256Z,63.84
2023-02-26T09:49:56.589Z,64.80
2023-02-26T09:52:22.946Z,65.61
2023-02-26T09:54:49.346Z,64.70
2023-02-26T09:57:15.655Z,64.20
2023-02-26T09:59:42.046Z,64.30
2023-02-26T10:02:08.475Z,64.21
2023-02-26T10:04:34.891Z,62.13
2023-02-26T10:07:01.131Z,60.62
2023-02-26T10:09:27.489Z,59.63
2023-02-26T10:11:53.841Z,59.48
2023-02-26T10:14:20.173Z,60.39
2023-02-26T10:16:46.673Z,61.29
2023-02-26T10:19:12.925Z,60.17
2023-02-26T10:21:39.274Z,56.51
2023-02-26T10:24:05.662Z,52.40
2023-02-26T10:26:32.133Z,55.19
2023-02-26T10:28:58.473Z,52.43
2023-02-26T10:31:25.218Z,54.14
2023-02-26T10:33:51.223Z,60.67
2023-02-26T10:36:17.951Z,65.88
2023-02-26T10:38:44.275Z,70.32
2023-02-26T10:41:10.644Z,73.58
2023-02-26T10:43:37.044Z,75.80
2023-02-26T10:46:03.499Z,77.63
2023-02-26T10:48:29.812Z,79.09
2023-02-26T10:50:56.228Z,79.94
2023-02-26T10:53:22.810Z,80.48
2023-02-26T10:55:49.150Z,80.88
2023-02-26T10:58:15.488Z,81.45
2023-02-26T11:00:41.825Z,81.94
2023-02-26T11:03:08.177Z,82.60
2023-02-26T11:05:34.633Z,82.85
2023-02-26T11:08:01.027Z,82.69
2023-02-26T11:10:27.446Z,82.30
2023-02-26T11:12:53.819Z,81.66
2023-02-26T11:15:20.122Z,81.77
2023-02-26T11:17:46.468Z,81.68
2023-02-26T11:20:12.815Z,81.95
2023-02-26T11:22:39.144Z,82.74
2023-02-26T11:25:05.520Z,83.49
2023-02-26T11:27:31.917Z,82.86
2023-02-26T11:29:59.283Z,83.20
2023-02-26T11:32:25.979Z,84.33
2023-02-26T11:34:52.162Z,85.18
2023-02-26T11:37:18.476Z,85.42
2023-02-26T11:39:44.835Z,85.65
2023-02-26T11:42:11.164Z,86.25
2023-02-26T11:44:37.471Z,85.26
2023-02-26T11:47:03.819Z,84.58
2023-02-26T11:49:30.192Z,85.16
2023-02-26T11:51:56.649Z,85.09
2023-02-26T11:54:22.958Z,85.03
2023-02-26T11:56:49.572Z,84.12
2023-02-26T11:59:15.953Z,85.22
2023-02-26T12:01:42.260Z,86.12
2023-02-26T12:04:08.650Z,86.12
2023-02-26T12:06:35.180Z,86.87
2023-02-26T12:09:01.561Z,87.31
2023-02-26T12:11:28.424Z,87.93
2023-02-26T12:13:54.299Z,88.94
2023-02-26T12:16:20.669Z,89.97
2023-02-26T12:18:46.975Z,90.39
2023-02-26T12:21:13.337Z,90.75
2023-02-26T12:23:39.686Z,90.93
2023-02-26T12:26:06.125Z,91.44
2023-02-26T12:28:32.512Z,91.41
2023-02-26T12:30:59.707Z,91.72
2023-02-26T12:33:26.253Z,92.54
2023-02-26T12:35:52.614Z,92.97
2023-02-26T12:38:19.008Z,93.25
2023-02-26T12:40:45.366Z,93.20
2023-02-26T12:43:11.725Z,93.52
2023-02-26T12:45:38.069Z,94.07
2023-02-26T12:48:04.405Z,94.55
2023-02-26T12:50:30.809Z,94.68
2023-02-26T12:52:57.177Z,94.71
2023-02-26T12:55:23.500Z,94.44
2023-02-26T12:57:50.032Z,94.55
2023-02-26T13:00:16.403Z,94.59
2023-02-26T13:02:42.809Z,94.85
2023-02-26T13:05:09.109Z,94.79
2023-02-26T13:07:35.462Z,94.73
2023-02-26T13:10:01.787Z,94.65
2023-02-26T13:12:28.239Z,94.47
2023-02-26T13:14:54.559Z,94.03
2023-02-26T13:17:20.900Z,93.43
2023-02-26T13:19:47.252Z,93.01
2023-02-26T13:22:13.593Z,92.76
2023-02-26T13:24:39.947Z,92.83
2023-02-26T13:27:06.342Z,92.84
2023-02-26T13:29:32.683Z,92.97
2023-02-26T13:31:59.215Z,92.65
2023-02-26T13:34:25.356Z,93.03
2023-02-26T13:36:51.719Z,93.74
2023-02-26T13:39:18.064Z,94.24
2023-02-26T13:41:44.444Z,94.54
2023-02-26T13:44:13.744Z,94.79
2023-02-26T13:46:40.084Z,95.26
2023-02-26T13:49:06.405Z,95.55
2023-02-26T13:51:32.802Z,95.71
2023-02-26T13:53:59.161Z,95.47
2023-02-26T13:56:25.507Z,94.38
2023-02-26T13:58:51.876Z,94.16
2023-02-26T14:01:18.302Z,94.22
2023-02-26T14:03:44.582Z,94.24
2023-02-26T14:06:10.995Z,93.84
2023-02-26T14:08:37.329Z,93.88
2023-02-26T14:11:03.733Z,94.10
2023-02-26T14:13:30.131Z,94.40
2023-02-26T14:15:56.474Z,94.30
2023-02-26T14:18:22.836Z,94.09
2023-02-26T14:20:49.222Z,93.45
2023-02-26T14:23:15.581Z,93.21
2023-02-26T14:25:41.978Z,93.41
2023-02-26T14:28:08.289Z,93.65
2023-02-26T14:30:34.704Z,94.03
2023-02-26T14:33:01.018Z,94.00
2023-02-26T14:35:27.363Z,94.37
2023-02-26T14:37:53.784Z,94.47
2023-02-26T14:40:20.142Z,94.73
2023-02-26T14:42:46.457Z,94.93
2023-02-26T14:45:12.905Z,94.77
2023-02-26T14:47:39.288Z,94.84
2023-02-26T14:50:05.604Z,95.16
2023-02-26T14:52:31.960Z,94.93
2023-02-26T14:54:58.352Z,94.68
2023-02-26T14:57:24.846Z,94.74
2023-02-26T14:59:51.212Z,95.15
2023-02-26T15:02:17.717Z,95.42
2023-02-26T15:04:43.979Z,95.36
2023-02-26T15:07:10.351Z,95.68
2023-02-26T15:09:36.693Z,96.04
2023-02-26T15:12:03.044Z,96.19
2023-02-26T15:14:29.455Z,96.37
2023-02-26T15:16:55.772Z,96.58
2023-02-26T15:19:22.155Z,96.66
2023-02-26T15:21:48.527Z,96.87
2023-02-26T15:24:14.893Z,96.72
2023-02-26T15:26:41.266Z,96.63
2023-02-26T15:29:07.604Z,96.72
2023-02-26T15:31:34.134Z,96.75
2023-02-26T15:34:00.379Z,96.40
2023-02-26T15:36:26.996Z,95.80
2023-02-26T15:38:53.038Z,95.76
2023-02-26T15:41:19.368Z,95.82
2023-02-26T15:43:45.754Z,95.79
2023-02-26T15:46:12.174Z,95.83
2023-02-26T15:48:38.501Z,96.05
2023-02-26T15:51:04.847Z,96.42
2023-02-26T15:53:31.193Z,96.73
2023-02-26T15:55:57.598Z,97.15
2023-02-26T15:58:24.513Z,97.48
2023-02-26T16:00:51.034Z,97.91
2023-02-26T16:03:17.485Z,98.26
2023-02-26T16:05:43.812Z,98.46
2023-02-26T16:08:10.185Z,98.59
2023-02-26T16:10:36.502Z,99.00
2023-02-26T16:13:02.849Z,99.41
2023-02-26T16:15:29.181Z,99.75
2023-02-26T16:17:55.631Z,99.91
2023-02-26T16:20:21.952Z,100.00
2023-02-26T16:22:48.332Z,100.00
2023-02-26T16:25:14.836Z,100.00
2023-02-26T16:27:41.214Z,100.00
2023-02-26T16:30:07.544Z,100.00
2023-02-26T16:32:34.021Z,100.00
2023-02-26T16:35:00.362Z,100.00
2023-02-26T16:37:26.785Z,100.00
2023-02-26T16:39:53.125Z,100.00
2023-02-26T16:42:19.471Z,100.00
2023-02-26T16:44:45.838Z,100.00
2023-02-26T16:47:12.480Z,100.00
2023-02-26T16:49:38.861Z,100.00
2023-02-26T16:52:05.196Z,100.00
2023-02-26T16:54:32.716Z,100.00
2023-02-26T16:56:59.559Z,100.00
2023-02-26T16:59:25.914Z,100.00
2023-02-26T17:01:52.294Z,100.00
2023-02-26T17:04:19.733Z,100.00
2023-02-26T17:06:46.089Z,100.00
2023-02-26T17:09:12.415Z,100.00
2023-02-26T17:11:39.034Z,100.00
2023-02-26T17:14:05.941Z,100.00
2023-02-26T17:16:32.367Z,100.00
2023-02-26T17:18:58.652Z,100.00
2023-02-26T17:21:25.315Z,100.00
2023-02-26T17:23:51.735Z,100.00
2023-02-26T17:26:18.113Z,100.00
2023-02-26T17:28:44.471Z,100.00
2023-02-26T17:31:14.048Z,100.00
2023-02-26T17:33:40.391Z,100.00
2023-02-26T17:36:06.732Z,100.00
2023-02-26T17:38:33.121Z,99.76
2023-02-26T17:40:59.501Z,98.72
2023-02-26T17:43:26.850Z,97.69
2023-02-26T17:45:53.333Z,96.42
2023-02-26T17:48:19.647Z,95.13
2023-02-26T17:50:45.984Z,93.99
2023-02-26T17:53:12.592Z,93.14
2023-02-26T17:55:39.147Z,92.48
2023-02-26T17:58:05.490Z,91.90
2023-02-26T18:00:31.866Z,91.31
2023-02-26T18:02:58.231Z,90.71
2023-02-26T18:05:24.594Z,90.68
2023-02-26T18:07:50.923Z,90.03
2023-02-26T18:10:17.313Z,89.70
2023-02-26T18:12:43.714Z,89.28
2023-02-26T18:15:10.104Z,88.71
2023-02-26T18:17:36.461Z,88.42
2023-02-26T18:20:02.810Z,87.84
2023-02-26T18:22:29.139Z,87.57
2023-02-26T18:24:55.571Z,87.34
2023-02-26T18:27:21.967Z,86.84
2023-02-26T18:29:48.589Z,86.24
2023-02-26T18:32:15.182Z,85.67
2023-02-26T18:34:41.312Z,85.37
2023-02-26T18:37:07.657Z,85.27
2023-02-26T18:39:34.286Z,84.69
2023-02-26T18:42:00.615Z,84.08
2023-02-26T18:44:26.986Z,83.80
2023-02-26T18:46:53.311Z,83.68
2023-02-26T18:49:19.673Z,83.50
2023-02-26T18:51:46.040Z,84.06
2023-02-26T18:54:12.690Z,84.55
2023-02-26T18:56:39.066Z,84.10
2023-02-26T18:59:05.429Z,83.59
2023-02-26T19:01:32.126Z,83.49
2023-02-26T19:03:58.333Z,83.25
2023-02-26T19:06:24.712Z,83.18
2023-02-26T19:08:51.115Z,83.25
2023-02-26T19:11:17.423Z,83.17
2023-02-26T19:13:45.441Z,83.12
2023-02-26T19:16:10.329Z,82.95
2023-02-26T19:18:36.710Z,82.74
2023-02-26T19:21:03.059Z,82.72
2023-02-26T19:23:29.593Z,82.48
2023-02-26T19:25:59.049Z,82.45
2023-02-26T19:28:26.629Z,82.12
2023-02-26T19:30:53.162Z,81.94
2023-02-26T19:33:20.382Z,81.61
2023-02-26T19:35:48.068Z,81.31
2023-02-26T19:38:16.582Z,81.21
2023-02-26T19:40:43.024Z,80.97
2023-02-26T19:43:09.363Z,80.59
2023-02-26T19:45:35.862Z,80.42
2023-02-26T19:48:02.262Z,80.29
2023-02-26T19:50:28.625Z,80.05
2023-02-26T19:52:55.014Z,79.77
2023-02-26T19:55:21.385Z,79.77
2023-02-26T19:57:49.261Z,79.65
2023-02-26T20:00:14.455Z,79.26
2023-02-26T20:02:40.962Z,78.83
2023-02-26T20:05:07.286Z,78.40
2023-02-26T20:07:33.677Z,78.08
2023-02-26T20:10:00.098Z,77.79
2023-02-26T20:12:26.602Z,77.56
2023-02-26T20:14:52.979Z,77.38
2023-02-26T20:17:19.321Z,77.38
2023-02-26T20:19:45.690Z,77.21
2023-02-26T20:22:13.193Z,76.84
2023-02-26T20:24:39.682Z,76.84
2023-02-26T20:27:06.075Z,76.79
2023-02-26T20:29:32.843Z,76.58
2023-02-26T20:31:59.384Z,76.24
2023-02-26T20:34:25.916Z,75.94
2023-02-26T20:36:54.546Z,75.65
2023-02-26T20:39:18.700Z,75.50
2023-02-26T20:41:45.058Z,75.10
2023-02-26T20:44:11.381Z,74.70
2023-02-26T20:46:37.816Z,74.24
2023-02-26T20:49:04.114Z,74.11
2023-02-26T20:51:30.513Z,73.97
2023-02-26T20:53:57.301Z,73.55
2023-02-26T20:56:23.691Z,73.36
2023-02-26T20:58:50.012Z,73.11
2023-02-26T21:01:16.358Z,73.04
2023-02-26T21:03:42.717Z,72.67
2023-02-26T21:06:09.063Z,72.50
2023-02-26T21:08:35.463Z,72.24
2023-02-26T21:11:02.060Z,72.15
2023-02-26T21:13:28.443Z,71.92
2023-02-26T21:15:57.340Z,71.61
2023-02-26T21:18:23.621Z,71.46
2023-02-26T21:20:49.962Z,71.45
2023-02-26T21:23:16.296Z,71.28
2023-02-26T21:25:42.657Z,71.19
2023-02-26T21:28:09.011Z,70.86
2023-02-26T21:30:35.388Z,70.64
2023-02-26T21:33:01.734Z,70.54
2023-02-26T21:35:28.088Z,70.31
2023-02-26T21:37:54.546Z,70.20
2023-02-26T21:40:20.866Z,70.00
2023-02-26T21:42:47.230Z,69.73
2023-02-26T21:45:13.603Z,69.47
2023-02-26T21:47:39.912Z,69.18
2023-02-26T21:50:06.288Z,69.19
2023-02-26T21:52:32.696Z,69.07
2023-02-26T21:54:59.039Z,68.98
2023-02-26T21:57:25.403Z,71.26
2023-02-26T21:59:51.834Z,74.20
2023-02-26T22:02:18.207Z,75.68
2023-02-26T22:04:44.553Z,76.83
2023-02-26T22:07:10.991Z,77.73
2023-02-26T22:09:37.338Z,76.76
2023-02-26T22:12:03.665Z,74.85
2023-02-26T22:14:30.124Z,73.78
2023-02-26T22:16:56.501Z,72.95
2023-02-26T22:19:22.856Z,72.30
2023-02-26T22:21:49.221Z,71.76
2023-02-26T22:24:15.594Z,71.24
2023-02-26T22:26:41.926Z,71.05
2023-02-26T22:29:08.321Z,70.64
2023-02-26T22:31:34.781Z,70.46
2023-02-26T22:34:01.075Z,70.22
2023-02-26T22:36:27.462Z,69.96
2023-02-26T22:38:53.744Z,69.57
2023-02-26T22:41:20.128Z,69.46
2023-02-26T22:43:46.466Z,69.26
2023-02-26T22:46:12.912Z,72.75
2023-02-26T22:48:39.240Z,75.10
2023-02-26T22:51:05.591Z,76.54
2023-02-26T22:53:31.932Z,77.42
2023-02-26T22:55:58.315Z,78.11
2023-02-26T22:58:24.630Z,75.64
2023-02-26T23:00:51.022Z,74.29
2023-02-26T23:03:17.358Z,73.53
2023-02-26T23:05:43.755Z,72.60
2023-02-26T23:08:10.091Z,71.95
2023-02-26T23:10:36.506Z,71.32
2023-02-26T23:13:02.828Z,70.93
2023-02-26T23:15:29.232Z,70.76
2023-02-26T23:17:55.592Z,70.34
2023-02-26T23:20:21.961Z,70.14
2023-02-26T23:22:48.308Z,70.01
2023-02-26T23:25:14.648Z,69.76
2023-02-26T23:27:41.004Z,71.86
2023-02-26T23:30:07.322Z,74.84
2023-02-26T23:32:33.736Z,76.38
2023-02-26T23:35:00.026Z,77.39
2023-02-26T23:37:26.411Z,78.21
2023-02-26T23:39:52.885Z,77.30
2023-02-26T23:42:19.202Z,75.49
2023-02-26T23:44:45.585Z,74.32
2023-02-26T23:47:11.914Z,73.36
2023-02-26T23:49:38.255Z,72.80
2023-02-26T23:52:04.577Z,72.38
2023-02-26T23:54:30.943Z,71.81
2023-02-26T23:56:57.263Z,71.29
2023-02-26T23:59:23.610Z,70.98
